Latest Weather Observations for Albury

IDN60801

Issued at 8:32 pm EST Tuesday 25 April 2017 (issued every 30 minutes, with the page automatically refreshed every 10 minutes)

About weather observations | Map of weather stations | Latest weather observations for NSW | Other Formats
Station Details ID: 072160 Name: ALBURY AIRPORT AWS Lat: -36.07 Lon: 146.95 Height: 163.5 m
Data from the previous 72 hours. | See also: Recent months at Albury
Date/Time
EST
Temp
°C
App
Temp
°C
Dew
Point
°C
Rel
Hum
%
Delta-T
°C
Wind Press
QNH
hPa
Press
MSL
hPa
Rain since
9am
mm
Dir  Spd
km/h
Gust
km/h
Spd
kts
Gust
kts
25/08:30pm 14.5 15.3 12.5 88 1.1 CALM 0 0 0 0 1008.1 1007.9 20.2
25/08:00pm 15.4 14.9 12.7 84 1.5 W 7 13 4 7 1008.2 1008.0 20.2
25/07:30pm 15.8 14.9 12.7 82 1.7 W 9 15 5 8 1008.0 1007.8 20.2
25/07:00pm 16.4 14.5 12.9 80 2.0 W 15 20 8 11 1007.8 1007.6 20.2
25/06:30pm 16.6 14.4 13.3 81 1.9 W 17 24 9 13 1007.5 1007.3 20.2
25/06:00pm 16.7 15.3 14.5 87 1.3 WNW 15 19 8 10 1007.3 1007.1 20.2
25/05:30pm 16.4 14.8 13.9 85 1.4 WNW 15 20 8 11 1007.0 1006.8 20.0
25/05:00pm 18.7 17.9 14.0 74 2.7 WNW 11 13 6 7 1006.7 1006.5 18.4
25/04:30pm 19.9 18.3 14.9 73 3.0 NW 17 22 9 12 1006.8 1006.6 18.4
25/04:00pm 18.8 18.3 14.9 78 2.3 WNW 11 15 6 8 1006.7 1006.5 18.4
25/03:30pm 20.2 19.1 15.2 73 3.0 WNW 15 20 8 11 1006.6 1006.4 18.4
25/03:00pm 20.1 18.8 15.7 76 2.6 WNW 17 24 9 13 1006.7 1006.5 18.4
25/02:30pm 19.6 18.4 16.1 80 2.1 WNW 17 22 9 12 1006.9 1006.7 18.4
25/02:00pm 18.7 18.0 16.3 86 1.4 WNW 15 19 8 10 1007.0 1006.8 18.4
25/01:30pm 17.3 17.4 16.5 95 0.5 WNW 11 17 6 9 1007.4 1007.2 18.4
25/01:17pm 17.1 17.6 16.6 97 0.3 W 9 13 5 7 1007.4 1007.2 18.4
25/01:13pm 17.0 17.6 16.8 99 0.1 W 9 15 5 8 1007.4 1007.2 18.4
25/01:00pm 16.6 17.1 16.6 100 0.0 NW 9 13 5 7 1007.5 1007.3 18.4
25/12:52pm 16.8 17.4 16.8 100 0.0 WNW 9 17 5 9 1007.7 1007.5 17.2
25/12:49pm 16.8 18.0 16.8 100 0.0 W 6 17 3 9 1007.7 1007.5 16.6
25/12:30pm 16.8 19.1 16.8 100 0.0 CALM 0 0 0 0 1007.7 1007.5 15.4
25/12:29pm 16.8 19.1 16.8 100 0.0 CALM 0 0 0 0 1007.7 1007.5 15.4
25/12:00pm 16.7 17.8 16.7 100 0.0 WSW 6 7 3 4 1008.1 1007.9 14.6
25/11:47am 16.5 17.6 16.5 100 0.0 W 6 7 3 4 1008.3 1008.1 14.0
25/11:30am 16.5 16.6 16.5 100 0.0 WNW 11 13 6 7 1008.5 1008.3 13.0
25/11:14am 16.6 16.7 16.6 100 0.0 W 11 17 6 9 1008.8 1008.6 9.8
25/11:00am 16.8 17.9 16.6 99 0.1 N 6 9 3 5 1008.7 1008.5 8.4
25/10:55am 16.8 18.0 16.8 100 0.0 N 6 9 3 5 1008.8 1008.6 8.2
25/10:30am 16.6 18.5 16.6 100 0.0 NE 2 6 1 3 1008.9 1008.7 8.0
25/10:12am 16.4 17.2 16.4 100 0.0 ENE 7 9 4 5 1009.2 1009.0 7.4
25/10:00am 16.4 17.2 16.4 100 0.0 NE 7 11 4 6 1009.5 1009.2 6.4
25/09:30am 16.3 17.7 16.3 100 0.0 N 4 9 2 5 1009.7 1009.4 3.6
25/09:00am 16.3 16.7 16.3 100 0.0 NNE 9 11 5 6 1009.8 1009.5 9.6
25/08:53am 16.4 16.8 16.4 100 0.0 N 9 13 5 7 1010.0 1009.7 8.8
25/08:42am 16.4 16.8 16.4 100 0.0 NE 9 11 5 6 1010.0 1009.7 8.4
25/08:31am 16.5 17.4 16.5 100 0.0 NNE 7 11 4 6 1009.9 1009.6 8.0
25/08:30am 16.5 17.4 16.5 100 0.0 NNE 7 11 4 6 1010.0 1009.7 8.0
25/08:09am 16.5 17.6 16.5 100 0.0 NNE 6 9 3 5 1010.4 1010.2 6.4
25/08:00am 16.4 17.2 16.4 100 0.0 NNE 7 9 4 5 1010.5 1010.3 6.2
25/07:30am 16.5 17.4 16.2 98 0.2 NNW 6 9 3 5 1010.5 1010.3 5.4
25/07:00am 16.5 16.9 16.2 98 0.2 NNE 9 13 5 7 1010.5 1010.3 5.4
25/06:38am 16.5 16.7 15.7 95 0.5 NNW 9 15 5 8 1010.4 1010.2 5.4
25/06:30am 16.6 16.1 15.8 95 0.5 NNW 13 20 7 11 1010.6 1010.4 5.2
25/06:28am 16.6 16.1 15.8 95 0.5 NNW 13 20 7 11 1010.7 1010.5 5.2
25/06:14am 16.7 15.8 15.9 95 0.5 N 15 19 8 10 1010.7 1010.5 4.8
25/06:02am 16.7 16.1 15.7 94 0.6 NNW 13 22 7 12 1010.7 1010.5 4.6
25/06:00am 16.7 16.1 15.7 94 0.6 NNW 13 22 7 12 1010.7 1010.5 4.6
25/05:33am 17.1 16.0 15.3 89 1.1 NNW 15 24 8 13 1010.9 1010.7 1.6
25/05:30am 17.4 16.7 15.4 88 1.2 NNW 13 20 7 11 1010.8 1010.6 1.0
25/05:00am 17.1 17.1 15.1 88 1.2 ENE 9 13 5 7 1010.3 1010.1 0.2
25/04:30am 17.3 17.5 14.8 85 1.5 E 7 13 4 7 1010.4 1010.2 0.0
25/04:00am 17.3 17.5 14.8 85 1.5 NE 7 11 4 6 1010.8 1010.6 0.0
25/03:30am 17.9 16.2 14.6 81 1.9 N 17 26 9 14 1011.1 1010.9 0.0
25/03:00am 18.4 16.5 14.3 77 2.4 NNE 17 26 9 14 1011.4 1011.2 0.0
25/02:30am 18.8 17.3 14.3 75 2.6 N 15 24 8 13 1011.7 1011.5 0.0
25/02:00am 17.6 17.6 14.3 81 1.9 NE 7 9 4 5 1012.3 1012.1 0.0
25/01:30am 17.5 17.7 14.2 81 1.9 ENE 6 9 3 5 1012.7 1012.5 0.0
25/01:00am 15.8 16.0 14.8 94 0.6 SSE 7 9 4 5 1013.3 1013.1 0.0
25/12:30am 15.6 15.7 14.5 93 0.6 SSE 7 7 4 4 1013.7 1013.5 0.0
25/12:00am 15.8 16.1 14.5 92 0.7 SE 6 7 3 4 1014.2 1014.0 0.0
 
Date/Time
EST
Temp
°C
App
Temp
°C
Dew
Point
°C
Rel
Hum
%
Delta-T
°C
Wind Press
QNH
hPa
Press
MSL
hPa
Rain since
9am
mm
Dir  Spd
km/h
Gust
km/h
Spd
kts
Gust
kts
24/11:30pm 15.9 17.2 14.1 89 1.0 CALM 0 0 0 0 1014.7 1014.5 0.0
24/11:00pm 16.4 17.8 14.4 88 1.2 CALM 0 0 0 0 1015.1 1014.9 0.0
24/10:30pm 16.3 16.6 14.5 89 1.0 SE 6 7 3 4 1015.5 1015.4 0.0
24/10:19pm 16.4 17.5 14.6 89 1.0 ENE 2 7 1 4 1015.8 1015.6 0.0
24/10:06pm 16.0 17.4 14.4 90 0.9 CALM 0 0 0 0 1016.0 1015.8 0.0
24/10:00pm 16.0 17.3 14.2 89 1.0 CALM 0 0 0 0 1015.9 1015.7 0.0
24/09:30pm 17.0 18.6 14.8 87 1.3 CALM 0 0 0 0 1015.6 1015.5 0.0
24/09:00pm 17.0 18.4 14.5 85 1.4 CALM 0 0 0 0 1015.8 1015.6 0.0
24/08:30pm 17.4 18.8 14.3 82 1.8 CALM 0 0 0 0 1016.1 1015.9 0.0
24/08:00pm 17.2 18.6 14.5 84 1.6 CALM 0 0 0 0 1016.2 1016.0 0.0
24/07:30pm 18.0 19.0 15.3 84 1.6 E 4 6 2 3 1016.2 1016.0 0.0
24/07:00pm 18.1 19.8 15.2 83 1.7 CALM 0 0 0 0 1016.3 1016.1 0.0
24/06:30pm 18.1 19.6 14.6 80 2.0 CALM 0 0 0 0 1016.3 1016.1 0.0
24/06:00pm 19.1 20.4 14.1 73 2.9 CALM 0 0 0 0 1016.2 1016.0 0.0
24/05:30pm 20.1 20.1 14.2 69 3.4 E 7 9 4 5 1016.0 1015.8 0.0
24/05:00pm 20.5 20.7 14.6 69 3.5 SE 7 9 4 5 1016.1 1015.9 0.0
24/04:30pm 21.5 21.7 14.6 65 4.1 ESE 7 11 4 6 1016.3 1016.1 0.0
24/04:00pm 22.0 21.6 14.1 61 4.6 SE 9 13 5 7 1016.5 1016.3 0.0
24/03:30pm 22.7 22.5 14.8 61 4.7 SE 9 11 5 6 1016.9 1016.7 0.0
24/03:00pm 22.8 22.5 14.4 59 5.0 SE 9 13 5 7 1017.1 1016.9 0.0
24/02:30pm 22.9 22.3 14.7 60 4.9 SE 11 17 6 9 1017.2 1017.0 0.0
24/02:00pm 22.2 21.9 14.3 61 4.7 ESE 9 13 5 7 1017.4 1017.2 0.0
24/01:30pm 23.0 23.1 15.6 63 4.5 SSE 9 13 5 7 1017.9 1017.7 0.0
24/01:00pm 22.2 22.6 15.3 65 4.1 SSE 7 13 4 7 1018.5 1018.3 0.0
24/12:30pm 21.7 21.7 15.1 66 3.9 SE 9 13 5 7 1019.1 1018.9 0.0
24/12:00pm 21.5 21.9 15.3 68 3.7 ESE 7 11 4 6 1019.7 1019.5 0.0
24/11:30am 20.4 20.1 14.3 68 3.6 E 9 13 5 7 1020.4 1020.2 0.0
24/11:00am 19.9 19.6 14.3 70 3.3 E 9 15 5 8 1020.9 1020.8 0.0
24/10:30am 18.5 17.9 14.6 78 2.3 SE 11 15 6 8 1021.5 1021.4 0.0
24/10:00am 17.5 17.4 13.2 76 2.4 SE 6 9 3 5 1021.9 1021.8 0.0
24/09:30am 17.2 17.8 13.1 77 2.3 E 2 6 1 3 1022.3 1022.1 0.0
24/09:00am 15.8 16.2 12.5 81 1.8 ENE 2 6 1 3 1022.5 1022.3 0.0
24/08:30am 15.4 16.0 13.1 86 1.3 E 2 9 1 5 1022.5 1022.3 0.0
24/08:00am 13.5 14.2 12.2 92 0.7 CALM 0 6 0 3 1022.4 1022.2 0.0
24/07:30am 12.0 11.2 11.8 99 0.1 NW 7 7 4 4 1022.2 1022.0 0.0
24/07:00am 11.5 11.9 11.3 99 0.1 CALM 0 0 0 0 1021.9 1021.8 0.0
24/06:30am 11.5 12.0 11.5 100 0.0 CALM 0 0 0 0 1021.8 1021.7 0.0
24/06:00am 11.5 10.8 11.5 100 0.0 ENE 6 9 3 5 1021.7 1021.6 0.0
24/05:30am 11.4 11.8 11.2 99 0.1 CALM 0 0 0 0 1021.6 1021.5 0.0
24/05:00am 11.8 12.3 11.6 99 0.1 CALM 0 0 0 0 1021.5 1021.4 0.0
24/04:30am 12.0 12.6 12.0 100 0.0 CALM 0 0 0 0 1021.1 1021.0 0.0
24/04:00am 11.5 11.6 11.5 100 0.0 NNE 2 6 1 3 1021.1 1021.0 0.0
24/03:30am 11.6 12.1 11.6 100 0.0 CALM 0 0 0 0 1021.2 1021.1 0.0
24/03:00am 12.1 12.8 12.1 100 0.0 CALM 0 0 0 0 1021.3 1021.2 0.0
24/02:54am 11.8 12.4 11.8 100 0.0 CALM 0 0 0 0 1021.3 1021.2 0.0
24/02:30am 11.0 11.3 10.8 99 0.1 CALM 0 0 0 0 1021.5 1021.4 0.0
24/02:19am 11.6 12.0 11.3 98 0.2 CALM 0 2 0 1 1021.5 1021.4 0.0
24/02:00am 12.2 12.8 11.9 98 0.2 CALM 0 2 0 1 1021.6 1021.5 0.0
24/01:30am 12.1 11.5 11.6 97 0.3 WNW 6 9 3 5 1021.8 1021.7 0.0
24/01:00am 12.6 11.9 12.1 97 0.3 N 7 9 4 5 1021.8 1021.7 0.0
24/12:30am 13.1 13.9 12.5 96 0.3 CALM 0 0 0 0 1022.0 1021.9 0.0
24/12:00am 13.4 13.4 12.3 93 0.6 SE 4 6 2 3 1022.3 1022.1 0.0
 
Date/Time
EST
Temp
°C
App
Temp
°C
Dew
Point
°C
Rel
Hum
%
Delta-T
°C
Wind Press
QNH
hPa
Press
MSL
hPa
Rain since
9am
mm
Dir  Spd
km/h
Gust
km/h
Spd
kts
Gust
kts
23/11:30pm 14.0 14.5 12.7 92 0.7 SE 2 6 1 3 1022.5 1022.3 0.0
23/11:00pm 14.7 14.7 13.6 93 0.6 E 6 7 3 4 1022.6 1022.4 0.0
23/10:30pm 14.6 15.5 13.0 90 0.9 CALM 0 0 0 0 1022.8 1022.6 0.0
23/10:00pm 15.7 16.8 13.4 86 1.3 CALM 0 0 0 0 1022.9 1022.7 0.0
23/09:30pm 16.9 17.2 14.4 85 1.4 ESE 6 7 3 4 1023.0 1022.8 0.0
23/09:00pm 17.4 17.7 14.9 85 1.5 SSE 7 11 4 6 1023.0 1022.8 0.0
23/08:30pm 18.0 19.4 14.5 80 2.0 CALM 0 0 0 0 1022.8 1022.6 0.0
23/08:00pm 18.5 20.2 15.2 81 1.9 CALM 0 0 0 0 1022.7 1022.5 0.0
23/07:30pm 18.8 20.4 14.9 78 2.3 CALM 0 0 0 0 1022.5 1022.3 0.0
23/07:00pm 19.3 21.0 15.2 77 2.4 CALM 0 0 0 0 1022.3 1022.1 0.0
23/06:30pm 19.1 20.4 14.1 73 2.9 CALM 0 0 0 0 1021.9 1021.8 0.0
23/06:00pm 19.4 20.7 14.2 72 3.0 CALM 0 0 0 0 1021.7 1021.6 0.0
23/05:30pm 20.3 20.3 13.5 65 3.9 SE 6 7 3 4 1021.6 1021.5 0.0
23/05:00pm 21.1 21.0 13.3 61 4.5 SE 6 7 3 4 1021.5 1021.4 0.0
23/04:30pm 21.6 21.3 12.7 57 5.1 SSE 6 7 3 4 1021.4 1021.3 0.0
23/04:00pm 22.1 21.6 12.6 55 5.4 SE 7 9 4 5 1021.4 1021.3 0.0
23/03:30pm 23.1 22.7 12.4 51 6.1 SE 6 9 3 5 1021.4 1021.3 0.0
23/03:00pm 22.5 21.9 12.4 52 5.8 SE 7 13 4 7 1021.5 1021.4 0.0
23/02:30pm 22.7 22.7 13.5 56 5.4 ESE 6 9 3 5 1021.6 1021.5 0.0
23/02:00pm 22.6 22.8 14.2 59 4.9 SSE 6 11 3 6 1021.8 1021.7 0.0
23/01:30pm 22.1 21.9 13.5 58 5.0 E 7 11 4 6 1022.3 1022.1 0.0
23/01:00pm 21.5 21.2 13.2 59 4.8 E 7 11 4 6 1022.7 1022.5 0.0
23/12:30pm 21.1 21.4 14.5 66 3.9 ESE 6 11 3 6 1023.2 1023.0 0.0
23/12:00pm 20.3 20.5 14.2 68 3.5 ESE 6 9 3 5 1023.8 1023.6 0.0
23/11:30am 19.8 19.9 14.4 71 3.2 ESE 7 13 4 7 1024.2 1024.0 0.0
23/11:00am 19.0 19.2 14.7 76 2.5 SSE 7 11 4 6 1024.5 1024.3 0.0
23/10:30am 18.1 18.7 14.2 78 2.3 ESE 4 9 2 5 1024.8 1024.6 0.0
23/10:00am 17.1 17.2 14.0 82 1.8 SE 6 9 3 5 1025.0 1024.8 0.0
23/09:30am 16.8 16.8 14.1 84 1.5 E 7 11 4 6 1025.2 1025.0 0.0
23/09:00am 15.7 15.5 13.5 87 1.2 ENE 7 9 4 5 1025.2 1025.0 0.6
23/08:30am 14.7 15.3 13.1 90 0.9 SE 2 6 1 3 1025.2 1025.0 0.6
23/08:00am 13.1 12.6 12.6 97 0.3 SE 7 9 4 5 1025.0 1024.8 0.6
23/07:30am 12.4 13.2 12.4 100 0.0 CALM 0 0 0 0 1024.8 1024.6 0.6
23/07:25am 12.2 12.9 12.2 100 0.0 CALM 0 0 0 0 1024.7 1024.5 0.6
23/07:05am 11.8 12.4 11.8 100 0.0 CALM 0 0 0 0 1024.6 1024.4 0.6
23/07:00am 11.6 12.1 11.6 100 0.0 CALM 0 0 0 0 1024.6 1024.4 0.6
23/06:48am 11.5 12.0 11.5 100 0.0 CALM 0 0 0 0 1024.5 1024.3 0.6
23/06:30am 12.0 12.6 12.0 100 0.0 CALM 0 0 0 0 1024.3 1024.1 0.6
23/06:00am 12.2 12.9 12.2 100 0.0 CALM 0 0 0 0 1024.1 1023.9 0.6
23/05:30am 12.2 12.9 12.2 100 0.0 CALM 0 0 0 0 1023.9 1023.7 0.6
23/05:13am 12.0 11.5 12.0 100 0.0 SE 6 7 3 4 1023.8 1023.6 0.6
23/05:00am 12.1 12.8 12.1 100 0.0 CALM 0 0 0 0 1023.7 1023.5 0.6
23/04:47am 11.6 12.1 11.6 100 0.0 CALM 0 0 0 0 1023.6 1023.4 0.6
23/04:44am 11.8 12.4 11.8 100 0.0 CALM 0 0 0 0 1023.6 1023.4 0.6
23/04:30am 11.6 12.1 11.6 100 0.0 CALM 0 0 0 0 1023.5 1023.3 0.6
23/04:00am 11.6 12.1 11.6 100 0.0 CALM 0 0 0 0 1023.5 1023.3 0.6
23/03:30am 12.1 12.4 12.1 100 0.0 NNW 2 7 1 4 1023.5 1023.3 0.6
23/03:00am 12.4 13.2 12.4 100 0.0 CALM 0 6 0 3 1023.7 1023.5 0.6
23/02:30am 12.7 13.2 12.7 100 0.0 W 2 7 1 4 1023.9 1023.7 0.6
23/02:00am 12.4 13.2 12.4 100 0.0 CALM 0 0 0 0 1024.0 1023.8 0.6
23/01:30am 12.4 13.2 12.4 100 0.0 CALM 0 0 0 0 1024.0 1023.8 0.6
23/01:00am 12.9 13.4 12.9 100 0.0 NE 2 6 1 3 1024.1 1023.9 0.6
23/12:30am 13.1 14.1 13.1 100 0.0 CALM 0 6 0 3 1024.3 1024.1 0.6
23/12:18am 13.1 14.1 13.1 100 0.0 CALM 0 0 0 0 1024.3 1024.1 0.6
23/12:00am 13.0 13.9 13.0 100 0.0 CALM 0 0 0 0 1024.4 1024.2 0.6
 
Date/Time
EST
Temp
°C
App
Temp
°C
Dew
Point
°C
Rel
Hum
%
Delta-T
°C
Wind Press
QNH
hPa
Press
MSL
hPa
Rain since
9am
mm
Dir  Spd
km/h
Gust
km/h
Spd
kts
Gust
kts
22/11:59pm 12.8 13.7 12.8 100 0.0 CALM 0 2 0 1 1024.4 1024.2 0.6
22/11:30pm 13.5 13.5 13.5 100 0.0 SE 6 9 3 5 1024.3 1024.1 0.6
22/11:00pm 13.4 13.3 13.4 100 0.0 ESE 6 9 3 5 1024.5 1024.3 0.6
22/10:30pm 13.5 14.6 13.5 100 0.0 CALM 0 0 0 0 1024.6 1024.4 0.6
22/10:00pm 13.7 14.9 13.7 100 0.0 CALM 0 0 0 0 1024.5 1024.3 0.6
22/09:30pm 13.7 13.7 13.5 99 0.1 NNW 6 7 3 4 1024.6 1024.4 0.6
22/09:00pm 13.9 15.0 13.6 98 0.2 CALM 0 0 0 0 1024.6 1024.4 0.6

Other Formats:

Comma delimited format used in spreadsheet applications
http://www.bom.gov.au/fwo/IDN60801/IDN60801.95896.axf

JavaScript Object Notation format (JSON) in row-major order
http://www.bom.gov.au/fwo/IDN60801/IDN60801.95896.json